sensor_id;sensor_type;location;lat;lon;timestamp;P1;durP1;ratioP1;P2;durP2;ratioP2
72649;SDS011;61467;50.674;4.618;2023-04-24T00:02:09;17.17;;;8.25;;
72649;SDS011;61467;50.674;4.618;2023-04-24T00:04:37;14.98;;;8.30;;
72649;SDS011;61467;50.674;4.618;2023-04-24T00:07:05;19.45;;;8.70;;
72649;SDS011;61467;50.674;4.618;2023-04-24T00:09:32;20.17;;;8.40;;
72649;SDS011;61467;50.674;4.618;2023-04-24T00:11:59;17.80;;;8.20;;
72649;SDS011;61467;50.674;4.618;2023-04-24T00:14:27;20.40;;;8.70;;
72649;SDS011;61467;50.674;4.618;2023-04-24T00:16:54;21.30;;;9.25;;
72649;SDS011;61467;50.674;4.618;2023-04-24T00:19:21;20.95;;;8.73;;
72649;SDS011;61467;50.674;4.618;2023-04-24T00:21:49;21.35;;;9.40;;
72649;SDS011;61467;50.674;4.618;2023-04-24T00:24:16;17.57;;;7.60;;
72649;SDS011;61467;50.674;4.618;2023-04-24T00:26:43;17.25;;;7.70;;
72649;SDS011;61467;50.674;4.618;2023-04-24T00:29:10;17.23;;;8.57;;
72649;SDS011;61467;50.674;4.618;2023-04-24T00:31:37;16.88;;;7.47;;
72649;SDS011;61467;50.674;4.618;2023-04-24T00:34:04;18.30;;;9.10;;
72649;SDS011;61467;50.674;4.618;2023-04-24T00:36:31;17.80;;;8.37;;
72649;SDS011;61467;50.674;4.618;2023-04-24T00:39:02;18.85;;;8.38;;
72649;SDS011;61467;50.674;4.618;2023-04-24T00:41:29;18.10;;;8.52;;
72649;SDS011;61467;50.674;4.618;2023-04-24T00:43:56;16.15;;;7.80;;
72649;SDS011;61467;50.674;4.618;2023-04-24T00:46:23;15.65;;;7.70;;
72649;SDS011;61467;50.674;4.618;2023-04-24T00:48:50;18.13;;;8.30;;
72649;SDS011;61467;50.674;4.618;2023-04-24T00:51:17;21.92;;;8.00;;
72649;SDS011;61467;50.674;4.618;2023-04-24T00:53:43;16.08;;;7.53;;
72649;SDS011;61467;50.674;4.618;2023-04-24T00:56:11;22.23;;;8.15;;
72649;SDS011;61467;50.674;4.618;2023-04-24T00:58:39;18.83;;;8.60;;
72649;SDS011;61467;50.674;4.618;2023-04-24T01:01:06;19.50;;;8.57;;
72649;SDS011;61467;50.674;4.618;2023-04-24T01:03:33;18.25;;;8.18;;
72649;SDS011;61467;50.674;4.618;2023-04-24T01:06:02;18.25;;;8.27;;
72649;SDS011;61467;50.674;4.618;2023-04-24T01:08:30;15.32;;;7.68;;
72649;SDS011;61467;50.674;4.618;2023-04-24T01:10:57;19.13;;;8.65;;
72649;SDS011;61467;50.674;4.618;2023-04-24T01:13:25;15.53;;;7.10;;
72649;SDS011;61467;50.674;4.618;2023-04-24T01:15:52;17.48;;;7.70;;
72649;SDS011;61467;50.674;4.618;2023-04-24T01:18:19;21.05;;;8.20;;
72649;SDS011;61467;50.674;4.618;2023-04-24T01:20:47;14.90;;;7.22;;
72649;SDS011;61467;50.674;4.618;2023-04-24T01:23:18;17.55;;;7.85;;
72649;SDS011;61467;50.674;4.618;2023-04-24T01:25:45;19.40;;;7.40;;
72649;SDS011;61467;50.674;4.618;2023-04-24T01:28:12;15.52;;;7.63;;
72649;SDS011;61467;50.674;4.618;2023-04-24T01:30:40;18.00;;;8.38;;
72649;SDS011;61467;50.674;4.618;2023-04-24T01:33:07;18.35;;;9.40;;
72649;SDS011;61467;50.674;4.618;2023-04-24T01:35:34;15.80;;;7.82;;
72649;SDS011;61467;50.674;4.618;2023-04-24T01:38:02;21.23;;;8.50;;
72649;SDS011;61467;50.674;4.618;2023-04-24T01:40:30;16.63;;;8.32;;
72649;SDS011;61467;50.674;4.618;2023-04-24T01:42:57;19.08;;;8.18;;
72649;SDS011;61467;50.674;4.618;2023-04-24T01:45:25;17.05;;;8.18;;
72649;SDS011;61467;50.674;4.618;2023-04-24T01:47:51;16.40;;;8.65;;
72649;SDS011;61467;50.674;4.618;2023-04-24T01:50:18;20.03;;;8.23;;
72649;SDS011;61467;50.674;4.618;2023-04-24T01:52:46;16.85;;;8.15;;
72649;SDS011;61467;50.674;4.618;2023-04-24T01:55:13;20.02;;;8.40;;
72649;SDS011;61467;50.674;4.618;2023-04-24T01:57:41;19.20;;;8.38;;
72649;SDS011;61467;50.674;4.618;2023-04-24T02:00:09;17.83;;;8.50;;
72649;SDS011;61467;50.674;4.618;2023-04-24T02:02:37;17.43;;;8.30;;
72649;SDS011;61467;50.674;4.618;2023-04-24T02:05:05;20.67;;;9.23;;
72649;SDS011;61467;50.674;4.618;2023-04-24T02:07:33;19.13;;;9.52;;
72649;SDS011;61467;50.674;4.618;2023-04-24T02:09:59;19.40;;;8.82;;
72649;SDS011;61467;50.674;4.618;2023-04-24T02:12:26;17.77;;;9.38;;
72649;SDS011;61467;50.674;4.618;2023-04-24T02:14:55;18.43;;;9.20;;
72649;SDS011;61467;50.674;4.618;2023-04-24T02:17:21;17.90;;;8.70;;
72649;SDS011;61467;50.674;4.618;2023-04-24T02:19:48;17.98;;;8.70;;
72649;SDS011;61467;50.674;4.618;2023-04-24T02:22:15;18.55;;;9.25;;
72649;SDS011;61467;50.674;4.618;2023-04-24T02:24:42;18.15;;;8.48;;
72649;SDS011;61467;50.674;4.618;2023-04-24T02:27:09;18.13;;;8.20;;
72649;SDS011;61467;50.674;4.618;2023-04-24T02:29:36;16.27;;;8.55;;
72649;SDS011;61467;50.674;4.618;2023-04-24T02:32:04;19.45;;;8.43;;
72649;SDS011;61467;50.674;4.618;2023-04-24T02:34:31;19.75;;;8.55;;
72649;SDS011;61467;50.674;4.618;2023-04-24T02:36:58;20.30;;;8.70;;
72649;SDS011;61467;50.674;4.618;2023-04-24T02:39:25;18.40;;;9.27;;
72649;SDS011;61467;50.674;4.618;2023-04-24T02:41:52;19.45;;;9.00;;
72649;SDS011;61467;50.674;4.618;2023-04-24T02:44:18;18.85;;;8.73;;
72649;SDS011;61467;50.674;4.618;2023-04-24T02:46:48;20.90;;;8.77;;
72649;SDS011;61467;50.674;4.618;2023-04-24T02:49:16;21.08;;;8.60;;
72649;SDS011;61467;50.674;4.618;2023-04-24T02:51:44;20.13;;;8.27;;
72649;SDS011;61467;50.674;4.618;2023-04-24T02:54:11;19.05;;;8.70;;
72649;SDS011;61467;50.674;4.618;2023-04-24T02:56:38;19.73;;;9.65;;
72649;SDS011;61467;50.674;4.618;2023-04-24T02:59:04;18.15;;;8.80;;
72649;SDS011;61467;50.674;4.618;2023-04-24T03:01:31;24.45;;;9.82;;
72649;SDS011;61467;50.674;4.618;2023-04-24T03:03:58;21.80;;;9.57;;
72649;SDS011;61467;50.674;4.618;2023-04-24T03:06:26;17.52;;;8.60;;
72649;SDS011;61467;50.674;4.618;2023-04-24T03:08:53;19.63;;;10.20;;
72649;SDS011;61467;50.674;4.618;2023-04-24T03:11:20;19.10;;;8.68;;
72649;SDS011;61467;50.674;4.618;2023-04-24T03:13:49;18.35;;;8.45;;
72649;SDS011;61467;50.674;4.618;2023-04-24T03:16:16;17.83;;;8.10;;
72649;SDS011;61467;50.674;4.618;2023-04-24T03:18:43;16.00;;;7.68;;
72649;SDS011;61467;50.674;4.618;2023-04-24T03:21:09;17.85;;;7.57;;
72649;SDS011;61467;50.674;4.618;2023-04-24T03:23:38;21.50;;;7.82;;
72649;SDS011;61467;50.674;4.618;2023-04-24T03:26:04;16.17;;;7.30;;
72649;SDS011;61467;50.674;4.618;2023-04-24T03:28:31;14.97;;;7.17;;
72649;SDS011;61467;50.674;4.618;2023-04-24T03:30:58;15.95;;;7.60;;
72649;SDS011;61467;50.674;4.618;2023-04-24T03:33:25;14.40;;;6.88;;
72649;SDS011;61467;50.674;4.618;2023-04-24T03:35:52;14.98;;;6.93;;
72649;SDS011;61467;50.674;4.618;2023-04-24T03:38:19;15.50;;;6.78;;
72649;SDS011;61467;50.674;4.618;2023-04-24T03:40:47;14.07;;;6.97;;
72649;SDS011;61467;50.674;4.618;2023-04-24T03:43:14;18.70;;;7.40;;
72649;SDS011;61467;50.674;4.618;2023-04-24T03:45:40;16.48;;;7.25;;
72649;SDS011;61467;50.674;4.618;2023-04-24T03:48:07;15.93;;;6.82;;
72649;SDS011;61467;50.674;4.618;2023-04-24T03:50:34;16.63;;;6.85;;
72649;SDS011;61467;50.674;4.618;2023-04-24T03:53:02;14.70;;;6.93;;
72649;SDS011;61467;50.674;4.618;2023-04-24T03:55:29;14.07;;;6.80;;
72649;SDS011;61467;50.674;4.618;2023-04-24T03:57:58;12.95;;;7.07;;
72649;SDS011;61467;50.674;4.618;2023-04-24T04:00:24;14.07;;;6.93;;
72649;SDS011;61467;50.674;4.618;2023-04-24T04:02:51;15.30;;;6.75;;
72649;SDS011;61467;50.674;4.618;2023-04-24T04:05:18;16.03;;;7.67;;
72649;SDS011;61467;50.674;4.618;2023-04-24T04:07:45;16.00;;;7.18;;
72649;SDS011;61467;50.674;4.618;2023-04-24T04:10:12;15.90;;;8.10;;
72649;SDS011;61467;50.674;4.618;2023-04-24T04:12:39;20.55;;;7.72;;
72649;SDS011;61467;50.674;4.618;2023-04-24T04:15:08;14.23;;;7.03;;
72649;SDS011;61467;50.674;4.618;2023-04-24T04:17:35;15.40;;;8.07;;
72649;SDS011;61467;50.674;4.618;2023-04-24T04:20:03;15.60;;;7.57;;
72649;SDS011;61467;50.674;4.618;2023-04-24T04:22:34;18.92;;;8.85;;
72649;SDS011;61467;50.674;4.618;2023-04-24T04:25:01;15.57;;;7.60;;
72649;SDS011;61467;50.674;4.618;2023-04-24T04:27:28;15.50;;;7.40;;
72649;SDS011;61467;50.674;4.618;2023-04-24T04:29:57;17.43;;;7.70;;
72649;SDS011;61467;50.674;4.618;2023-04-24T04:32:26;14.48;;;6.10;;
72649;SDS011;61467;50.674;4.618;2023-04-24T04:34:52;13.35;;;6.00;;
72649;SDS011;61467;50.674;4.618;2023-04-24T04:37:19;13.32;;;6.07;;
72649;SDS011;61467;50.674;4.618;2023-04-24T04:39:46;14.63;;;7.00;;
72649;SDS011;61467;50.674;4.618;2023-04-24T04:42:13;15.40;;;5.60;;
72649;SDS011;61467;50.674;4.618;2023-04-24T04:44:40;12.57;;;5.45;;
72649;SDS011;61467;50.674;4.618;2023-04-24T04:47:07;11.73;;;5.55;;
72649;SDS011;61467;50.674;4.618;2023-04-24T04:49:37;12.48;;;5.90;;
72649;SDS011;61467;50.674;4.618;2023-04-24T04:52:04;14.25;;;5.97;;
72649;SDS011;61467;50.674;4.618;2023-04-24T04:54:33;13.03;;;5.47;;
72649;SDS011;61467;50.674;4.618;2023-04-24T04:57:03;12.77;;;5.88;;
72649;SDS011;61467;50.674;4.618;2023-04-24T04:59:30;11.13;;;5.35;;
72649;SDS011;61467;50.674;4.618;2023-04-24T05:01:57;10.77;;;5.07;;
72649;SDS011;61467;50.674;4.618;2023-04-24T05:04:23;10.95;;;5.57;;
72649;SDS011;61467;50.674;4.618;2023-04-24T05:06:52;12.07;;;5.20;;
72649;SDS011;61467;50.674;4.618;2023-04-24T05:09:21;10.55;;;5.03;;
72649;SDS011;61467;50.674;4.618;2023-04-24T05:11:48;12.27;;;4.88;;
72649;SDS011;61467;50.674;4.618;2023-04-24T05:14:15;11.30;;;5.30;;
72649;SDS011;61467;50.674;4.618;2023-04-24T05:16:43;11.02;;;5.55;;
72649;SDS011;61467;50.674;4.618;2023-04-24T05:19:09;11.80;;;5.20;;
72649;SDS011;61467;50.674;4.618;2023-04-24T05:21:37;11.43;;;5.45;;
72649;SDS011;61467;50.674;4.618;2023-04-24T05:24:07;11.45;;;5.85;;
72649;SDS011;61467;50.674;4.618;2023-04-24T05:26:34;13.35;;;6.28;;
72649;SDS011;61467;50.674;4.618;2023-04-24T05:29:01;17.08;;;6.40;;
72649;SDS011;61467;50.674;4.618;2023-04-24T05:31:29;13.17;;;6.13;;
72649;SDS011;61467;50.674;4.618;2023-04-24T05:33:56;16.42;;;7.13;;
72649;SDS011;61467;50.674;4.618;2023-04-24T05:36:22;15.93;;;7.80;;
72649;SDS011;61467;50.674;4.618;2023-04-24T05:38:49;14.00;;;6.75;;
72649;SDS011;61467;50.674;4.618;2023-04-24T05:41:17;13.80;;;7.45;;
72649;SDS011;61467;50.674;4.618;2023-04-24T05:43:44;15.53;;;7.77;;
72649;SDS011;61467;50.674;4.618;2023-04-24T05:46:11;18.63;;;7.47;;
72649;SDS011;61467;50.674;4.618;2023-04-24T05:48:39;14.70;;;7.38;;
72649;SDS011;61467;50.674;4.618;2023-04-24T05:51:06;15.65;;;8.05;;
72649;SDS011;61467;50.674;4.618;2023-04-24T05:53:33;19.45;;;8.43;;
72649;SDS011;61467;50.674;4.618;2023-04-24T05:56:00;19.87;;;9.27;;
72649;SDS011;61467;50.674;4.618;2023-04-24T05:58:28;15.93;;;7.43;;
72649;SDS011;61467;50.674;4.618;2023-04-24T06:00:55;22.73;;;8.82;;
72649;SDS011;61467;50.674;4.618;2023-04-24T06:03:23;17.73;;;7.72;;
72649;SDS011;61467;50.674;4.618;2023-04-24T06:05:50;16.67;;;8.18;;
72649;SDS011;61467;50.674;4.618;2023-04-24T06:08:17;16.73;;;8.50;;
72649;SDS011;61467;50.674;4.618;2023-04-24T06:10:44;16.38;;;8.82;;
72649;SDS011;61467;50.674;4.618;2023-04-24T06:13:11;17.05;;;8.60;;
72649;SDS011;61467;50.674;4.618;2023-04-24T06:15:40;18.65;;;8.13;;
72649;SDS011;61467;50.674;4.618;2023-04-24T06:18:07;20.25;;;9.30;;
72649;SDS011;61467;50.674;4.618;2023-04-24T06:20:35;19.07;;;8.03;;
72649;SDS011;61467;50.674;4.618;2023-04-24T06:23:03;20.42;;;8.15;;
72649;SDS011;61467;50.674;4.618;2023-04-24T06:25:29;16.80;;;8.23;;
72649;SDS011;61467;50.674;4.618;2023-04-24T06:27:56;16.95;;;7.75;;
72649;SDS011;61467;50.674;4.618;2023-04-24T06:30:23;18.70;;;8.88;;
72649;SDS011;61467;50.674;4.618;2023-04-24T06:32:52;18.80;;;8.53;;
72649;SDS011;61467;50.674;4.618;2023-04-24T06:35:18;20.35;;;8.00;;
72649;SDS011;61467;50.674;4.618;2023-04-24T06:37:45;16.75;;;9.10;;
72649;SDS011;61467;50.674;4.618;2023-04-24T06:40:12;17.13;;;8.90;;
72649;SDS011;61467;50.674;4.618;2023-04-24T06:42:39;21.58;;;10.07;;
72649;SDS011;61467;50.674;4.618;2023-04-24T06:45:06;20.67;;;9.50;;
72649;SDS011;61467;50.674;4.618;2023-04-24T06:47:35;23.23;;;10.52;;
72649;SDS011;61467;50.674;4.618;2023-04-24T06:50:03;20.13;;;10.18;;
72649;SDS011;61467;50.674;4.618;2023-04-24T06:52:30;22.27;;;10.60;;
72649;SDS011;61467;50.674;4.618;2023-04-24T06:54:59;23.60;;;11.23;;
72649;SDS011;61467;50.674;4.618;2023-04-24T06:57:27;26.90;;;11.57;;
72649;SDS011;61467;50.674;4.618;2023-04-24T06:59:55;23.55;;;11.27;;
72649;SDS011;61467;50.674;4.618;2023-04-24T07:02:22;22.92;;;11.70;;
72649;SDS011;61467;50.674;4.618;2023-04-24T07:04:49;24.65;;;11.38;;
72649;SDS011;61467;50.674;4.618;2023-04-24T07:07:17;21.00;;;11.55;;
72649;SDS011;61467;50.674;4.618;2023-04-24T07:09:46;23.67;;;11.57;;
72649;SDS011;61467;50.674;4.618;2023-04-24T07:12:13;27.23;;;12.80;;
72649;SDS011;61467;50.674;4.618;2023-04-24T07:14:42;23.95;;;12.23;;
72649;SDS011;61467;50.674;4.618;2023-04-24T07:17:09;26.35;;;13.23;;
72649;SDS011;61467;50.674;4.618;2023-04-24T07:19:38;28.20;;;12.48;;
72649;SDS011;61467;50.674;4.618;2023-04-24T07:22:05;25.43;;;11.73;;
72649;SDS011;61467;50.674;4.618;2023-04-24T07:24:33;27.15;;;11.88;;
72649;SDS011;61467;50.674;4.618;2023-04-24T07:27:00;23.58;;;11.15;;
72649;SDS011;61467;50.674;4.618;2023-04-24T07:29:27;22.05;;;12.15;;
72649;SDS011;61467;50.674;4.618;2023-04-24T07:31:53;27.40;;;12.85;;
72649;SDS011;61467;50.674;4.618;2023-04-24T07:34:21;23.00;;;12.07;;
72649;SDS011;61467;50.674;4.618;2023-04-24T07:36:48;22.38;;;11.25;;
72649;SDS011;61467;50.674;4.618;2023-04-24T07:39:15;24.05;;;12.48;;
72649;SDS011;61467;50.674;4.618;2023-04-24T07:41:46;22.35;;;11.27;;
72649;SDS011;61467;50.674;4.618;2023-04-24T07:44:12;24.77;;;11.70;;
72649;SDS011;61467;50.674;4.618;2023-04-24T07:46:39;22.07;;;11.43;;
72649;SDS011;61467;50.674;4.618;2023-04-24T07:49:06;23.95;;;11.68;;
72649;SDS011;61467;50.674;4.618;2023-04-24T07:51:33;25.67;;;11.90;;
72649;SDS011;61467;50.674;4.618;2023-04-24T07:54:03;21.30;;;10.75;;
72649;SDS011;61467;50.674;4.618;2023-04-24T07:56:31;23.73;;;11.32;;
72649;SDS011;61467;50.674;4.618;2023-04-24T07:58:59;24.17;;;11.33;;
72649;SDS011;61467;50.674;4.618;2023-04-24T08:01:27;23.02;;;10.82;;
72649;SDS011;61467;50.674;4.618;2023-04-24T08:03:54;26.73;;;11.82;;
72649;SDS011;61467;50.674;4.618;2023-04-24T08:06:21;19.23;;;11.02;;
72649;SDS011;61467;50.674;4.618;2023-04-24T08:08:49;22.33;;;11.25;;
72649;SDS011;61467;50.674;4.618;2023-04-24T08:11:16;20.23;;;10.17;;
72649;SDS011;61467;50.674;4.618;2023-04-24T08:13:44;22.88;;;10.43;;
72649;SDS011;61467;50.674;4.618;2023-04-24T08:16:13;24.00;;;10.98;;
72649;SDS011;61467;50.674;4.618;2023-04-24T08:18:40;21.50;;;10.73;;
72649;SDS011;61467;50.674;4.618;2023-04-24T08:21:07;22.25;;;11.27;;
72649;SDS011;61467;50.674;4.618;2023-04-24T08:23:34;24.97;;;10.57;;
72649;SDS011;61467;50.674;4.618;2023-04-24T08:26:01;19.90;;;9.88;;
72649;SDS011;61467;50.674;4.618;2023-04-24T08:28:28;18.77;;;10.40;;
72649;SDS011;61467;50.674;4.618;2023-04-24T08:30:55;21.52;;;10.07;;
72649;SDS011;61467;50.674;4.618;2023-04-24T08:33:23;21.35;;;10.20;;
72649;SDS011;61467;50.674;4.618;2023-04-24T08:35:50;17.40;;;9.47;;
72649;SDS011;61467;50.674;4.618;2023-04-24T08:38:17;21.83;;;9.95;;
72649;SDS011;61467;50.674;4.618;2023-04-24T08:40:44;19.58;;;9.82;;
72649;SDS011;61467;50.674;4.618;2023-04-24T08:43:14;23.90;;;9.82;;
72649;SDS011;61467;50.674;4.618;2023-04-24T08:45:42;19.02;;;10.13;;
72649;SDS011;61467;50.674;4.618;2023-04-24T08:48:08;21.40;;;10.00;;
72649;SDS011;61467;50.674;4.618;2023-04-24T08:50:37;20.77;;;10.20;;
72649;SDS011;61467;50.674;4.618;2023-04-24T08:53:06;19.35;;;9.48;;
72649;SDS011;61467;50.674;4.618;2023-04-24T08:55:34;21.35;;;9.70;;
72649;SDS011;61467;50.674;4.618;2023-04-24T08:58:02;18.13;;;8.75;;
72649;SDS011;61467;50.674;4.618;2023-04-24T09:00:30;23.50;;;9.03;;
72649;SDS011;61467;50.674;4.618;2023-04-24T09:02:57;16.80;;;8.35;;
72649;SDS011;61467;50.674;4.618;2023-04-24T09:05:26;17.55;;;8.45;;
72649;SDS011;61467;50.674;4.618;2023-04-24T09:07:55;17.80;;;8.40;;
72649;SDS011;61467;50.674;4.618;2023-04-24T09:10:23;15.93;;;7.43;;
72649;SDS011;61467;50.674;4.618;2023-04-24T09:12:51;17.20;;;7.10;;
72649;SDS011;61467;50.674;4.618;2023-04-24T09:15:19;16.30;;;8.05;;
72649;SDS011;61467;50.674;4.618;2023-04-24T09:17:46;16.15;;;6.88;;
72649;SDS011;61467;50.674;4.618;2023-04-24T09:20:13;17.02;;;7.20;;
72649;SDS011;61467;50.674;4.618;2023-04-24T09:22:40;15.40;;;6.63;;
72649;SDS011;61467;50.674;4.618;2023-04-24T09:25:10;12.97;;;5.90;;
72649;SDS011;61467;50.674;4.618;2023-04-24T09:27:41;12.80;;;5.38;;
72649;SDS011;61467;50.674;4.618;2023-04-24T09:30:09;12.85;;;4.80;;
72649;SDS011;61467;50.674;4.618;2023-04-24T09:32:37;14.77;;;5.30;;
72649;SDS011;61467;50.674;4.618;2023-04-24T09:35:04;12.23;;;5.45;;
72649;SDS011;61467;50.674;4.618;2023-04-24T09:37:34;12.20;;;5.00;;
72649;SDS011;61467;50.674;4.618;2023-04-24T09:40:15;12.52;;;4.93;;
72649;SDS011;61467;50.674;4.618;2023-04-24T09:42:43;11.75;;;4.88;;
72649;SDS011;61467;50.674;4.618;2023-04-24T09:45:11;12.63;;;4.80;;
72649;SDS011;61467;50.674;4.618;2023-04-24T09:47:38;10.23;;;5.22;;
72649;SDS011;61467;50.674;4.618;2023-04-24T09:50:09;10.57;;;5.00;;
72649;SDS011;61467;50.674;4.618;2023-04-24T09:52:39;11.90;;;5.57;;
72649;SDS011;61467;50.674;4.618;2023-04-24T09:55:10;11.90;;;5.65;;
72649;SDS011;61467;50.674;4.618;2023-04-24T09:57:46;12.20;;;4.93;;
72649;SDS011;61467;50.674;4.618;2023-04-24T10:00:17;10.73;;;5.63;;
72649;SDS011;61467;50.674;4.618;2023-04-24T10:02:49;11.93;;;5.27;;
72649;SDS011;61467;50.674;4.618;2023-04-24T10:05:17;14.93;;;4.97;;
72649;SDS011;61467;50.674;4.618;2023-04-24T10:07:44;10.13;;;3.95;;
72649;SDS011;61467;50.674;4.618;2023-04-24T10:10:12;9.05;;;4.10;;
72649;SDS011;61467;50.674;4.618;2023-04-24T10:12:40;10.07;;;3.92;;
72649;SDS011;61467;50.674;4.618;2023-04-24T10:15:07;9.63;;;3.60;;
72649;SDS011;61467;50.674;4.618;2023-04-24T10:17:37;10.50;;;3.75;;
72649;SDS011;61467;50.674;4.618;2023-04-24T10:20:05;8.45;;;3.30;;
72649;SDS011;61467;50.674;4.618;2023-04-24T10:22:33;9.48;;;3.30;;
72649;SDS011;61467;50.674;4.618;2023-04-24T10:25:00;10.52;;;3.45;;
72649;SDS011;61467;50.674;4.618;2023-04-24T10:27:32;11.07;;;3.30;;
72649;SDS011;61467;50.674;4.618;2023-04-24T10:30:00;8.50;;;3.10;;
72649;SDS011;61467;50.674;4.618;2023-04-24T10:32:27;7.53;;;3.13;;
72649;SDS011;61467;50.674;4.618;2023-04-24T10:34:55;7.32;;;2.97;;
72649;SDS011;61467;50.674;4.618;2023-04-24T10:37:22;7.90;;;2.92;;
72649;SDS011;61467;50.674;4.618;2023-04-24T10:39:50;10.03;;;3.17;;
72649;SDS011;61467;50.674;4.618;2023-04-24T10:42:19;8.38;;;3.58;;
72649;SDS011;61467;50.674;4.618;2023-04-24T10:44:48;9.90;;;3.50;;
72649;SDS011;61467;50.674;4.618;2023-04-24T10:47:15;11.35;;;3.90;;
72649;SDS011;61467;50.674;4.618;2023-04-24T10:49:42;10.02;;;3.35;;
72649;SDS011;61467;50.674;4.618;2023-04-24T10:52:09;8.53;;;3.60;;
72649;SDS011;61467;50.674;4.618;2023-04-24T10:54:41;9.65;;;3.78;;
72649;SDS011;61467;50.674;4.618;2023-04-24T10:57:26;7.80;;;3.70;;
72649;SDS011;61467;50.674;4.618;2023-04-24T11:00:16;9.10;;;3.67;;
72649;SDS011;61467;50.674;4.618;2023-04-24T11:02:45;9.05;;;3.75;;
72649;SDS011;61467;50.674;4.618;2023-04-24T11:05:18;12.10;;;4.33;;
72649;SDS011;61467;50.674;4.618;2023-04-24T11:10:43;8.73;;;3.80;;
72649;SDS011;61467;50.674;4.618;2023-04-24T11:13:10;10.02;;;4.22;;
72649;SDS011;61467;50.674;4.618;2023-04-24T11:15:42;13.13;;;4.45;;
72649;SDS011;61467;50.674;4.618;2023-04-24T11:18:13;13.17;;;5.37;;
72649;SDS011;61467;50.674;4.618;2023-04-24T11:20:41;17.45;;;7.82;;
72649;SDS011;61467;50.674;4.618;2023-04-24T11:23:11;15.65;;;7.32;;
72649;SDS011;61467;50.674;4.618;2023-04-24T11:25:39;16.58;;;7.10;;
72649;SDS011;61467;50.674;4.618;2023-04-24T11:28:07;13.70;;;5.97;;
72649;SDS011;61467;50.674;4.618;2023-04-24T11:30:42;14.77;;;6.73;;
72649;SDS011;61467;50.674;4.618;2023-04-24T11:33:10;14.45;;;6.70;;
72649;SDS011;61467;50.674;4.618;2023-04-24T11:35:39;15.55;;;7.22;;
72649;SDS011;61467;50.674;4.618;2023-04-24T11:38:06;12.50;;;6.13;;
72649;SDS011;61467;50.674;4.618;2023-04-24T11:40:33;13.73;;;6.68;;
72649;SDS011;61467;50.674;4.618;2023-04-24T11:43:00;16.67;;;7.50;;
72649;SDS011;61467;50.674;4.618;2023-04-24T11:45:27;14.70;;;8.35;;
72649;SDS011;61467;50.674;4.618;2023-04-24T11:47:57;15.43;;;7.57;;
72649;SDS011;61467;50.674;4.618;2023-04-24T11:50:24;15.63;;;8.02;;
72649;SDS011;61467;50.674;4.618;2023-04-24T11:52:52;13.68;;;7.97;;
72649;SDS011;61467;50.674;4.618;2023-04-24T11:55:24;15.27;;;8.87;;
72649;SDS011;61467;50.674;4.618;2023-04-24T11:57:56;15.80;;;8.45;;
72649;SDS011;61467;50.674;4.618;2023-04-24T12:00:25;15.88;;;7.63;;
72649;SDS011;61467;50.674;4.618;2023-04-24T12:03:04;14.23;;;7.95;;
72649;SDS011;61467;50.674;4.618;2023-04-24T12:05:32;17.58;;;7.97;;
72649;SDS011;61467;50.674;4.618;2023-04-24T12:07:59;17.73;;;7.87;;
72649;SDS011;61467;50.674;4.618;2023-04-24T12:10:26;13.30;;;6.82;;
72649;SDS011;61467;50.674;4.618;2023-04-24T12:12:55;15.60;;;7.90;;
72649;SDS011;61467;50.674;4.618;2023-04-24T12:15:23;13.77;;;7.25;;
72649;SDS011;61467;50.674;4.618;2023-04-24T12:17:51;17.23;;;8.20;;
72649;SDS011;61467;50.674;4.618;2023-04-24T12:20:25;15.13;;;7.00;;
72649;SDS011;61467;50.674;4.618;2023-04-24T12:22:53;14.70;;;6.95;;
72649;SDS011;61467;50.674;4.618;2023-04-24T12:25:21;13.50;;;7.20;;
72649;SDS011;61467;50.674;4.618;2023-04-24T12:27:52;13.52;;;7.10;;
72649;SDS011;61467;50.674;4.618;2023-04-24T12:30:20;14.50;;;7.20;;
72649;SDS011;61467;50.674;4.618;2023-04-24T12:32:48;14.90;;;6.67;;
72649;SDS011;61467;50.674;4.618;2023-04-24T12:35:18;13.82;;;7.00;;
72649;SDS011;61467;50.674;4.618;2023-04-24T12:37:48;13.95;;;6.80;;
72649;SDS011;61467;50.674;4.618;2023-04-24T12:40:16;13.15;;;6.35;;
72649;SDS011;61467;50.674;4.618;2023-04-24T12:42:44;12.57;;;6.60;;
72649;SDS011;61467;50.674;4.618;2023-04-24T12:45:12;11.93;;;6.10;;
72649;SDS011;61467;50.674;4.618;2023-04-24T12:47:40;11.32;;;6.07;;
72649;SDS011;61467;50.674;4.618;2023-04-24T12:50:08;13.10;;;6.00;;
72649;SDS011;61467;50.674;4.618;2023-04-24T12:52:36;12.88;;;5.85;;
72649;SDS011;61467;50.674;4.618;2023-04-24T12:55:06;11.73;;;6.10;;
72649;SDS011;61467;50.674;4.618;2023-04-24T12:57:36;11.17;;;5.50;;
72649;SDS011;61467;50.674;4.618;2023-04-24T13:00:04;11.30;;;5.53;;
72649;SDS011;61467;50.674;4.618;2023-04-24T13:02:32;13.63;;;6.47;;
72649;SDS011;61467;50.674;4.618;2023-04-24T13:04:59;12.68;;;6.38;;
72649;SDS011;61467;50.674;4.618;2023-04-24T13:07:27;11.35;;;5.65;;
72649;SDS011;61467;50.674;4.618;2023-04-24T13:09:54;11.50;;;5.23;;
72649;SDS011;61467;50.674;4.618;2023-04-24T13:12:24;13.35;;;6.72;;
72649;SDS011;61467;50.674;4.618;2023-04-24T13:14:51;11.82;;;6.07;;
72649;SDS011;61467;50.674;4.618;2023-04-24T13:17:18;9.55;;;5.05;;
72649;SDS011;61467;50.674;4.618;2023-04-24T13:19:45;12.48;;;5.68;;
72649;SDS011;61467;50.674;4.618;2023-04-24T13:22:12;13.10;;;5.37;;
72649;SDS011;61467;50.674;4.618;2023-04-24T13:24:39;13.38;;;5.80;;
72649;SDS011;61467;50.674;4.618;2023-04-24T13:27:07;11.45;;;6.00;;
72649;SDS011;61467;50.674;4.618;2023-04-24T13:29:36;10.82;;;5.60;;
72649;SDS011;61467;50.674;4.618;2023-04-24T13:32:04;12.98;;;6.25;;
72649;SDS011;61467;50.674;4.618;2023-04-24T13:34:31;12.27;;;5.57;;
72649;SDS011;61467;50.674;4.618;2023-04-24T13:36:59;13.07;;;6.15;;
72649;SDS011;61467;50.674;4.618;2023-04-24T13:39:26;15.15;;;6.25;;
72649;SDS011;61467;50.674;4.618;2023-04-24T13:41:53;12.63;;;5.72;;
72649;SDS011;61467;50.674;4.618;2023-04-24T13:44:20;12.38;;;5.88;;
72649;SDS011;61467;50.674;4.618;2023-04-24T13:46:50;13.07;;;6.30;;
72649;SDS011;61467;50.674;4.618;2023-04-24T13:49:22;11.77;;;6.43;;
72649;SDS011;61467;50.674;4.618;2023-04-24T13:51:50;12.30;;;6.38;;
72649;SDS011;61467;50.674;4.618;2023-04-24T13:54:18;14.35;;;6.72;;
72649;SDS011;61467;50.674;4.618;2023-04-24T13:56:44;13.15;;;6.65;;
72649;SDS011;61467;50.674;4.618;2023-04-24T13:59:14;13.07;;;6.73;;
72649;SDS011;61467;50.674;4.618;2023-04-24T14:01:41;11.23;;;6.18;;
72649;SDS011;61467;50.674;4.618;2023-04-24T14:04:11;13.68;;;6.78;;
72649;SDS011;61467;50.674;4.618;2023-04-24T14:06:38;14.23;;;6.55;;
72649;SDS011;61467;50.674;4.618;2023-04-24T14:09:05;12.70;;;7.13;;
72649;SDS011;61467;50.674;4.618;2023-04-24T14:11:33;12.80;;;6.20;;
72649;SDS011;61467;50.674;4.618;2023-04-24T14:14:00;20.73;;;7.43;;
72649;SDS011;61467;50.674;4.618;2023-04-24T14:16:27;13.23;;;7.38;;
72649;SDS011;61467;50.674;4.618;2023-04-24T14:18:55;14.52;;;7.25;;
72649;SDS011;61467;50.674;4.618;2023-04-24T14:21:23;14.02;;;7.82;;
72649;SDS011;61467;50.674;4.618;2023-04-24T14:23:50;16.53;;;7.33;;
72649;SDS011;61467;50.674;4.618;2023-04-24T14:26:17;17.13;;;7.53;;
72649;SDS011;61467;50.674;4.618;2023-04-24T14:28:44;14.68;;;7.90;;
72649;SDS011;61467;50.674;4.618;2023-04-24T14:31:11;15.65;;;7.63;;
72649;SDS011;61467;50.674;4.618;2023-04-24T14:33:37;16.73;;;8.52;;
72649;SDS011;61467;50.674;4.618;2023-04-24T14:36:04;15.20;;;7.67;;
72649;SDS011;61467;50.674;4.618;2023-04-24T14:38:33;17.75;;;9.60;;
72649;SDS011;61467;50.674;4.618;2023-04-24T14:41:00;17.30;;;8.88;;